Time;durP1;ratioP1;P1;durP2;ratioP2;P2;SDS_P1;SDS_P2;PMS_P1;PMS_P2;Temp;Humidity;BMP_temperature;BMP_pressure;BME280_temperature;BME280_humidity;BME280_pressure;Samples;Min_cycle;Max_cycle;Signal;HPM_P1;HPM_P2
2021/09/20 00:01:08;;;;;;;12.50;9.45;;;;;;;17.12;100.00;96239.03;4995563;28;20543;-58
2021/09/20 00:03:37;;;;;;;12.48;9.55;;;;;;;17.30;100.00;96242.06;4990161;28;20068;-59
2021/09/20 00:06:06;;;;;;;11.57;9.70;;;;;;;17.26;100.00;96230.97;4987327;28;20073;-58
2021/09/20 00:08:34;;;;;;;11.23;9.07;;;;;;;17.41;100.00;96230.03;4990021;28;20069;-58
2021/09/20 00:11:04;;;;;;;12.15;9.45;;;;;;;17.46;100.00;96233.78;4987989;28;20112;-55
2021/09/20 00:13:33;;;;;;;11.80;9.63;;;;;;;17.23;100.00;96236.66;4985399;28;20081;-59
2021/09/20 00:16:01;;;;;;;13.52;9.93;;;;;;;17.24;100.00;96238.34;4992348;28;20539;-55
2021/09/20 00:18:30;;;;;;;12.30;9.65;;;;;;;17.07;100.00;96232.44;4993323;28;20076;-60
2021/09/20 00:20:58;;;;;;;12.35;9.32;;;;;;;17.08;100.00;96228.75;4984048;28;20811;-59
2021/09/20 00:23:27;;;;;;;11.50;9.48;;;;;;;16.92;100.00;96230.84;4992930;28;20156;-60
2021/09/20 00:25:57;;;;;;;10.68;9.32;;;;;;;16.97;100.00;96233.78;4987842;28;20072;-57
2021/09/20 00:28:27;;;;;;;13.02;9.65;;;;;;;17.06;100.00;96235.28;4993203;28;20082;-59
2021/09/20 00:30:55;;;;;;;12.00;9.50;;;;;;;16.98;100.00;96243.41;4984659;28;20315;-55
2021/09/20 00:33:24;;;;;;;13.55;10.23;;;;;;;16.83;100.00;96240.81;4997189;28;20077;-58
2021/09/20 00:35:52;;;;;;;10.98;9.00;;;;;;;16.88;100.00;96240.22;4988290;28;20546;-59
2021/09/20 00:38:21;;;;;;;13.52;9.95;;;;;;;16.88;100.00;96241.06;4991354;28;20070;-57
2021/09/20 00:40:49;;;;;;;13.98;10.05;;;;;;;16.94;100.00;96242.16;4985925;28;20066;-59
2021/09/20 00:43:18;;;;;;;12.65;9.27;;;;;;;17.10;100.00;96239.22;4992982;28;20108;-58
2021/09/20 00:45:48;;;;;;;13.82;10.50;;;;;;;16.98;100.00;96238.09;4989688;28;20065;-58
2021/09/20 00:48:16;;;;;;;11.55;9.38;;;;;;;16.95;100.00;96244.59;4988349;28;20071;-56
2021/09/20 00:50:45;;;;;;;13.35;9.52;;;;;;;16.99;100.00;96237.88;4989626;28;20070;-54
2021/09/20 00:53:13;;;;;;;12.95;9.80;;;;;;;17.10;100.00;96244.53;4989911;28;20080;-55
2021/09/20 00:55:44;;;;;;;12.85;10.13;;;;;;;16.98;100.00;96243.41;4987659;28;20093;-56
2021/09/20 00:58:13;;;;;;;;;;;;;;;16.90;100.00;96241.69;4990395;28;20085;-53
2021/09/20 01:00:42;;;;;;;11.38;9.50;;;;;;;16.79;100.00;96252.84;4989669;28;20395;-57
2021/09/20 01:03:12;;;;;;;12.23;9.88;;;;;;;16.87;100.00;96249.25;4990182;28;20647;-57
2021/09/20 01:05:41;;;;;;;12.70;10.27;;;;;;;17.06;100.00;96257.41;4987124;28;20066;-56
2021/09/20 01:08:09;;;;;;;12.35;10.40;;;;;;;17.05;100.00;96257.63;4987895;28;20087;-59
2021/09/20 01:10:38;;;;;;;14.40;10.45;;;;;;;17.17;100.00;96263.25;4991473;28;20089;-55
2021/09/20 01:13:06;;;;;;;14.48;10.70;;;;;;;17.18;100.00;96264.94;4987404;28;20086;-57
2021/09/20 01:15:35;;;;;;;12.93;10.32;;;;;;;16.99;100.00;96264.53;4985233;28;20066;-58
2021/09/20 01:18:03;;;;;;;13.00;10.38;;;;;;;16.98;100.00;96267.38;4991282;28;20074;-56
2021/09/20 01:20:33;;;;;;;14.38;10.73;;;;;;;16.95;100.00;96259.78;4987530;28;20618;-59
2021/09/20 01:23:04;;;;;;;13.10;10.77;;;;;;;16.88;100.00;96267.69;4985925;28;20762;-59
2021/09/20 01:25:32;;;;;;;;;;;;;;;16.98;100.00;96264.72;4990469;28;20081;-56
2021/09/20 01:28:01;;;;;;;13.48;10.52;;;;;;;16.95;100.00;96281.91;4990669;28;19973;-53
2021/09/20 01:30:29;;;;;;;14.30;11.18;;;;;;;16.83;100.00;96270.94;4989580;28;20080;-58
2021/09/20 01:32:58;;;;;;;15.32;10.93;;;;;;;16.69;100.00;96269.09;4989554;28;20070;-49
2021/09/20 01:35:26;;;;;;;14.45;11.10;;;;;;;16.92;100.00;96271.63;4986716;28;20058;-58
2021/09/20 01:37:55;;;;;;;15.60;11.55;;;;;;;16.74;100.00;96274.72;4984738;28;20089;-56
2021/09/20 01:40:26;;;;;;;13.75;10.88;;;;;;;16.74;100.00;96277.38;4988539;28;20081;-57
2021/09/20 01:42:56;;;;;;;14.50;11.63;;;;;;;16.72;100.00;96282.00;4986978;28;20492;-56
2021/09/20 01:45:25;;;;;;;13.82;11.05;;;;;;;16.69;100.00;96285.06;4991342;28;20060;-57
2021/09/20 01:47:54;;;;;;;13.82;11.02;;;;;;;16.73;100.00;96283.69;4984616;28;20053;-54
2021/09/20 01:50:22;;;;;;;18.38;11.38;;;;;;;16.59;100.00;96284.53;4981992;28;20066;-56
2021/09/20 01:52:52;;;;;;;14.40;11.23;;;;;;;16.49;100.00;96292.81;4984519;28;20061;-53
2021/09/20 01:55:20;;;;;;;15.90;11.25;;;;;;;16.27;100.00;96289.25;4990250;28;20085;-57
2021/09/20 01:57:50;;;;;;;13.30;10.75;;;;;;;16.56;100.00;96293.72;4986640;28;20074;-57
2021/09/20 02:00:19;;;;;;;15.25;11.25;;;;;;;16.57;100.00;96291.88;4993908;28;20515;-58
2021/09/20 02:02:48;;;;;;;14.18;11.43;;;;;;;16.71;100.00;96296.34;4987848;28;20058;-54
2021/09/20 02:05:17;;;;;;;13.10;10.80;;;;;;;16.68;100.00;96294.06;4981034;28;20072;-55
2021/09/20 02:07:45;;;;;;;13.98;10.80;;;;;;;16.33;100.00;96299.16;4986433;28;20096;-55
2021/09/20 02:10:16;;;;;;;14.98;11.38;;;;;;;16.84;100.00;96290.41;4988866;28;20082;-58
2021/09/20 02:12:44;;;;;;;;;;;;;;;16.71;100.00;96293.69;4983529;28;20065;-57
2021/09/20 02:15:14;;;;;;;15.10;11.30;;;;;;;16.65;100.00;96285.63;4987167;28;19930;-54
2021/09/20 02:17:43;;;;;;;15.50;11.38;;;;;;;16.67;100.00;96294.25;4993235;28;20073;-59
2021/09/20 02:20:12;;;;;;;14.25;10.82;;;;;;;16.70;100.00;96288.56;4985169;28;20058;-58
2021/09/20 02:22:41;;;;;;;14.82;11.60;;;;;;;16.77;100.00;96289.50;4986337;28;20062;-56
2021/09/20 02:25:11;;;;;;;15.30;11.32;;;;;;;16.99;100.00;96295.66;4988753;28;20097;-57
2021/09/20 02:27:40;;;;;;;14.48;11.52;;;;;;;16.99;100.00;96298.34;4987657;28;20068;-59
2021/09/20 02:30:09;;;;;;;18.42;11.60;;;;;;;16.89;100.00;96303.13;4990195;28;20046;-55
2021/09/20 02:32:39;;;;;;;17.13;12.10;;;;;;;17.05;100.00;96306.41;4992976;28;20092;-57
2021/09/20 02:35:09;;;;;;;14.30;10.90;;;;;;;16.76;100.00;96299.31;4991006;28;20069;-57
2021/09/20 02:37:38;;;;;;;17.00;12.23;;;;;;;16.68;100.00;96304.72;4991766;28;20090;-58
2021/09/20 02:40:09;;;;;;;16.17;12.17;;;;;;;16.69;100.00;96303.72;4997328;28;20527;-58
2021/09/20 02:42:37;;;;;;;17.27;11.88;;;;;;;16.58;100.00;96304.16;4989337;28;20085;-56
2021/09/20 02:45:07;;;;;;;16.92;12.98;;;;;;;16.68;100.00;96298.56;4992396;28;20070;-57
2021/09/20 02:47:36;;;;;;;14.68;11.93;;;;;;;16.53;100.00;96295.94;4990956;28;20062;-57
2021/09/20 02:50:08;;;;;;;16.05;12.15;;;;;;;16.52;100.00;96302.28;4990029;28;20041;-55
2021/09/20 02:52:37;;;;;;;16.88;12.88;;;;;;;16.68;100.00;96298.56;4991472;28;20081;-58
2021/09/20 02:55:08;;;;;;;17.13;12.23;;;;;;;16.72;100.00;96297.16;4992350;28;20575;-56
2021/09/20 02:57:37;;;;;;;18.55;12.73;;;;;;;16.73;100.00;96302.31;4991625;28;20543;-58
2021/09/20 03:00:07;;;;;;;16.10;12.27;;;;;;;16.91;100.00;96303.78;4991051;28;20077;-55
2021/09/20 03:02:36;;;;;;;18.20;12.65;;;;;;;16.53;100.00;96311.91;4995010;28;20066;-55
2021/09/20 03:05:07;;;;;;;16.58;12.85;;;;;;;16.63;100.00;96306.28;4987927;28;20079;-54
2021/09/20 03:07:36;;;;;;;17.35;12.52;;;;;;;16.59;100.00;96312.00;4987496;28;20535;-57
2021/09/20 03:10:06;;;;;;;16.30;12.38;;;;;;;16.86;100.00;96312.31;4994996;28;20104;-57
2021/09/20 03:12:34;;;;;;;17.50;12.60;;;;;;;16.93;100.00;96309.72;4997501;28;20080;-59
2021/09/20 03:15:02;;;;;;;17.17;12.30;;;;;;;16.86;100.00;96314.97;4991349;28;20088;-56
2021/09/20 03:17:31;;;;;;;16.67;13.13;;;;;;;16.98;100.00;96318.81;4989884;28;20097;-53
2021/09/20 03:20:00;;;;;;;16.65;12.55;;;;;;;16.87;100.00;96311.31;4991219;28;20062;-54
2021/09/20 03:22:29;;;;;;;15.52;12.43;;;;;;;17.11;100.00;96314.66;4991580;28;20539;-55
2021/09/20 03:24:58;;;;;;;16.00;12.68;;;;;;;17.15;100.00;96315.94;4992328;28;20098;-56
2021/09/20 03:27:26;;;;;;;17.98;12.25;;;;;;;16.92;100.00;96316.91;4991137;28;20072;-56
2021/09/20 03:29:55;;;;;;;18.60;13.25;;;;;;;17.11;100.00;96317.31;4991353;28;20065;-59
2021/09/20 03:32:23;;;;;;;15.95;12.43;;;;;;;17.00;100.00;96318.66;4988639;28;20065;-59
2021/09/20 03:34:51;;;;;;;17.77;13.02;;;;;;;17.16;100.00;96314.91;4987756;28;20398;-56
2021/09/20 03:37:20;;;;;;;16.25;13.20;;;;;;;17.14;100.00;96312.44;4994660;28;20473;-56
2021/09/20 03:39:50;;;;;;;18.58;13.55;;;;;;;17.18;100.00;96311.03;4990784;28;20069;-58
2021/09/20 03:42:18;;;;;;;16.77;12.57;;;;;;;17.26;100.00;96318.09;4987822;28;20155;-55
2021/09/20 03:44:47;;;;;;;16.23;13.10;;;;;;;17.26;100.00;96313.56;4989120;28;20058;-59
2021/09/20 03:47:15;;;;;;;17.42;13.32;;;;;;;17.29;100.00;96325.72;4989131;28;20054;-58
2021/09/20 03:49:43;;;;;;;17.05;13.40;;;;;;;17.15;100.00;96319.41;4988870;28;20078;-58
2021/09/20 03:52:12;;;;;;;16.35;11.95;;;;;;;17.14;100.00;96330.28;4989702;28;20097;-54
2021/09/20 03:54:40;;;;;;;16.67;13.10;;;;;;;17.14;100.00;96327.63;4992771;28;20062;-57
2021/09/20 03:57:10;;;;;;;17.77;13.20;;;;;;;17.29;100.00;96326.53;4990556;28;20086;-59
2021/09/20 03:59:38;;;;;;;18.35;13.43;;;;;;;17.22;100.00;96328.31;4988873;28;20448;-55
2021/09/20 04:02:07;;;;;;;16.77;12.40;;;;;;;17.10;100.00;96329.78;4988062;28;20077;-59
2021/09/20 04:04:36;;;;;;;17.65;13.07;;;;;;;17.21;100.00;96329.31;4993497;28;20096;-57
2021/09/20 04:07:06;;;;;;;17.33;12.80;;;;;;;17.25;100.00;96335.91;4993926;28;20085;-57
2021/09/20 04:09:34;;;;;;;17.85;13.50;;;;;;;17.24;100.00;96328.94;4984703;28;20073;-56
2021/09/20 04:12:03;;;;;;;17.75;13.13;;;;;;;17.40;100.00;96330.53;4987316;28;20596;-58
2021/09/20 04:14:33;;;;;;;16.45;12.88;;;;;;;17.32;100.00;96331.47;4991024;28;20597;-56
2021/09/20 04:17:01;;;;;;;17.52;12.55;;;;;;;17.41;100.00;96334.00;4987350;28;20066;-56
2021/09/20 04:19:29;;;;;;;18.25;13.73;;;;;;;17.22;100.00;96338.13;4989753;28;20074;-56
2021/09/20 04:21:58;;;;;;;17.48;13.20;;;;;;;17.37;100.00;96328.22;4992275;28;21670;-57
2021/09/20 04:24:26;;;;;;;17.73;13.25;;;;;;;17.39;100.00;96333.41;4990081;28;20063;-58
2021/09/20 04:26:55;;;;;;;18.95;13.43;;;;;;;17.53;100.00;96333.31;4988402;28;20088;-58
2021/09/20 04:29:23;;;;;;;18.52;13.52;;;;;;;17.53;100.00;96335.16;4991051;28;20062;-59
2021/09/20 04:31:53;;;;;;;18.23;13.57;;;;;;;17.24;100.00;96349.41;4988213;28;20081;-52
2021/09/20 04:34:23;;;;;;;16.83;13.20;;;;;;;17.20;100.00;96342.81;4985911;28;20085;-57
2021/09/20 04:36:51;;;;;;;17.65;12.88;;;;;;;17.12;100.00;96343.78;4986603;28;20078;-58
2021/09/20 04:39:20;;;;;;;15.55;12.85;;;;;;;17.26;100.00;96350.88;4985248;28;20559;-55
2021/09/20 04:41:48;;;;;;;19.90;13.27;;;;;;;17.16;100.00;96347.69;4984985;28;20081;-55
2021/09/20 04:44:17;;;;;;;19.17;13.90;;;;;;;17.09;100.00;96344.97;4985641;28;20078;-57
2021/09/20 04:46:45;;;;;;;16.65;13.10;;;;;;;17.30;100.00;96354.00;4987563;28;20096;-59
2021/09/20 04:49:15;;;;;;;19.63;13.45;;;;;;;17.25;100.00;96351.91;4983476;28;20074;-57
2021/09/20 04:51:43;;;;;;;20.85;13.55;;;;;;;17.40;100.00;96356.34;4984009;28;20449;-59
2021/09/20 04:54:12;;;;;;;18.98;13.95;;;;;;;17.36;100.00;96355.91;4985846;28;20078;-56
2021/09/20 04:56:40;;;;;;;17.65;13.55;;;;;;;17.36;100.00;96365.75;4987905;28;20461;-58
2021/09/20 04:59:09;;;;;;;17.13;13.60;;;;;;;17.35;100.00;96372.94;4984004;28;20062;-58
2021/09/20 05:01:37;;;;;;;17.60;13.85;;;;;;;17.55;100.00;96373.97;4984499;28;20082;-58
2021/09/20 05:04:06;;;;;;;17.70;13.75;;;;;;;17.60;100.00;96375.22;4986594;28;20093;-57
2021/09/20 05:06:36;;;;;;;17.30;13.07;;;;;;;17.41;100.00;96369.50;4982893;28;20128;-55
2021/09/20 05:09:07;;;;;;;16.88;12.88;;;;;;;17.52;100.00;96371.66;4985361;28;20065;-55
2021/09/20 05:11:35;;;;;;;17.10;12.98;;;;;;;17.14;100.00;96379.06;4984477;28;20062;-55
2021/09/20 05:14:04;;;;;;;17.25;13.50;;;;;;;16.68;100.00;96381.09;4985112;28;20100;-57
2021/09/20 05:16:33;;;;;;;17.58;13.68;;;;;;;17.02;100.00;96384.03;4984265;28;20090;-58
2021/09/20 05:19:01;;;;;;;18.00;14.10;;;;;;;17.33;100.00;96385.63;4987965;28;20077;-54
2021/09/20 05:21:30;;;;;;;17.65;13.02;;;;;;;17.38;100.00;96383.22;4985834;28;20512;-55
2021/09/20 05:24:00;;;;;;;18.40;13.40;;;;;;;17.61;100.00;96385.69;4988506;28;20077;-57
2021/09/20 05:26:28;;;;;;;18.40;13.57;;;;;;;17.89;100.00;96383.09;4989002;28;20074;-54
2021/09/20 05:28:56;;;;;;;20.10;13.82;;;;;;;17.82;100.00;96382.22;4988663;28;20077;-55
2021/09/20 05:31:25;;;;;;;16.70;13.10;;;;;;;18.06;100.00;96382.81;4987256;28;20610;-58
2021/09/20 05:33:53;;;;;;;18.13;13.90;;;;;;;18.27;100.00;96385.44;4990275;28;21292;-56
2021/09/20 05:36:22;;;;;;;16.80;13.00;;;;;;;18.27;100.00;96394.31;4986596;28;20070;-60
2021/09/20 05:38:50;;;;;;;18.48;13.65;;;;;;;18.08;100.00;96392.31;4987925;28;20065;-58
2021/09/20 05:41:20;;;;;;;18.27;13.65;;;;;;;18.15;100.00;96401.19;4990819;28;20465;-53
2021/09/20 05:43:49;;;;;;;17.48;13.10;;;;;;;18.24;100.00;96402.69;4992426;28;20092;-54
2021/09/20 05:46:17;;;;;;;16.95;13.68;;;;;;;18.06;100.00;96406.84;4990065;28;20093;-59
2021/09/20 05:48:46;;;;;;;16.83;13.60;;;;;;;18.36;100.00;96410.97;4986123;28;20085;-57
2021/09/20 05:51:15;;;;;;;17.67;13.63;;;;;;;18.33;100.00;96408.69;4987159;28;20081;-56
2021/09/20 05:53:43;;;;;;;17.73;13.82;;;;;;;18.39;100.00;96409.78;4992530;28;20070;-57
2021/09/20 05:56:14;;;;;;;17.05;13.52;;;;;;;18.44;100.00;96412.69;4990807;28;20058;-58
2021/09/20 05:58:43;;;;;;;17.02;13.18;;;;;;;18.60;100.00;96411.56;4987696;28;20085;-57
2021/09/20 06:01:12;;;;;;;16.83;13.27;;;;;;;18.61;100.00;96418.53;4992933;28;20084;-58
2021/09/20 06:03:41;;;;;;;19.73;13.75;;;;;;;18.67;100.00;96415.09;4994865;28;20058;-56
2021/09/20 06:06:11;;;;;;;18.02;13.80;;;;;;;18.66;100.00;96408.94;4989824;28;20070;-58
2021/09/20 06:08:39;;;;;;;18.20;14.55;;;;;;;18.51;100.00;96416.22;4996572;28;20065;-58
2021/09/20 06:11:10;;;;;;;16.80;13.10;;;;;;;18.41;100.00;96421.06;4992073;28;20488;-54
2021/09/20 06:13:38;;;;;;;20.50;17.27;;;;;;;18.54;100.00;96421.16;4985735;28;20527;-53
2021/09/20 06:16:08;;;;;;;17.30;12.95;;;;;;;18.27;100.00;96418.34;4985207;28;20054;-55
2021/09/20 06:18:37;;;;;;;19.17;14.23;;;;;;;18.11;100.00;96418.59;4985439;28;20070;-58
2021/09/20 06:21:05;;;;;;;18.42;13.35;;;;;;;18.27;100.00;96421.00;4988456;28;20099;-55
2021/09/20 06:23:34;;;;;;;17.63;12.93;;;;;;;17.89;100.00;96427.63;4990539;28;20520;-57
2021/09/20 06:26:02;;;;;;;17.88;13.40;;;;;;;18.37;100.00;96422.47;4985916;28;20089;-58
2021/09/20 06:28:31;;;;;;;18.15;13.38;;;;;;;18.48;100.00;96427.31;4985530;28;20100;-57
2021/09/20 06:31:02;;;;;;;17.20;13.70;;;;;;;18.49;100.00;96421.75;4989956;28;20531;-56
2021/09/20 06:33:33;;;;;;;17.83;13.32;;;;;;;18.18;100.00;96427.50;4987576;28;20050;-56
2021/09/20 06:36:01;;;;;;;17.60;12.75;;;;;;;18.33;93.72;96430.06;4986349;28;20448;-53
2021/09/20 06:38:30;;;;;;;17.90;13.77;;;;;;;18.49;93.65;96432.44;4984515;28;20058;-56
2021/09/20 06:40:58;;;;;;;17.95;13.05;;;;;;;18.33;94.02;96427.38;4985096;28;20461;-55
2021/09/20 06:43:27;;;;;;;16.98;12.40;;;;;;;18.15;96.59;96427.03;4988717;28;20108;-56
2021/09/20 06:45:56;;;;;;;15.63;12.68;;;;;;;18.06;98.30;96431.69;4984552;28;20069;-58
2021/09/20 06:48:24;;;;;;;16.65;12.23;;;;;;;18.29;96.32;96430.66;4987384;28;20854;-55
2021/09/20 06:50:59;;;;;;;16.55;12.60;;;;;;;17.87;100.00;96435.84;4981810;28;20089;-56
2021/09/20 06:53:28;;;;;;;15.68;12.57;;;;;;;18.30;98.29;96430.44;4989798;28;20074;-55
2021/09/20 06:55:56;;;;;;;15.75;12.48;;;;;;;18.79;95.78;96437.59;4986153;28;20080;-56
2021/09/20 06:58:25;;;;;;;16.63;12.82;;;;;;;17.70;100.00;96431.75;4991877;28;20082;-56
2021/09/20 07:00:53;;;;;;;18.45;12.93;;;;;;;17.51;100.00;96439.31;4986151;28;20252;-56
2021/09/20 07:03:22;;;;;;;16.30;12.95;;;;;;;17.10;100.00;96436.38;4988428;28;20084;-58
2021/09/20 07:05:51;;;;;;;16.80;13.35;;;;;;;17.46;100.00;96436.41;4985439;28;20077;-59
2021/09/20 07:08:21;;;;;;;16.25;12.50;;;;;;;17.58;100.00;96439.41;4988928;28;20062;-54
2021/09/20 07:10:49;;;;;;;18.70;12.77;;;;;;;17.59;100.00;96441.06;4985079;28;20160;-56
2021/09/20 07:13:18;;;;;;;17.80;12.48;;;;;;;17.51;100.00;96442.00;4990315;28;20147;-56
2021/09/20 07:15:47;;;;;;;16.77;12.15;;;;;;;16.83;100.00;96444.03;4985940;28;20079;-59
2021/09/20 07:18:15;;;;;;;18.15;12.35;;;;;;;17.48;100.00;96445.06;4984649;28;20456;-55
2021/09/20 07:20:44;;;;;;;19.40;12.57;;;;;;;17.45;100.00;96447.28;4986533;28;20070;-55
2021/09/20 07:23:14;;;;;;;15.45;11.93;;;;;;;16.92;100.00;96451.94;4988916;28;20457;-56
2021/09/20 07:25:43;;;;;;;15.15;12.57;;;;;;;17.69;100.00;96446.91;4987024;28;20077;-54
2021/09/20 07:28:12;;;;;;;16.52;12.48;;;;;;;17.96;96.88;96449.84;4982896;28;20092;-56
2021/09/20 07:30:42;;;;;;;17.20;12.75;;;;;;;17.97;95.48;96444.34;4989550;28;20072;-54
2021/09/20 07:33:10;;;;;;;16.55;12.55;;;;;;;17.70;100.00;96448.56;4986666;28;20065;-55
2021/09/20 07:35:39;;;;;;;18.23;12.25;;;;;;;18.22;95.24;96452.78;4987666;28;20381;-59
2021/09/20 07:38:07;;;;;;;15.73;11.85;;;;;;;18.20;94.69;96449.50;4981087;28;22835;-57
2021/09/20 07:40:36;;;;;;;15.57;12.32;;;;;;;18.06;96.19;96460.22;4988383;28;20082;-57
2021/09/20 07:43:06;;;;;;;16.05;11.63;;;;;;;17.88;100.00;96464.16;4986608;28;20486;-57
2021/09/20 07:45:35;;;;;;;18.60;12.68;;;;;;;17.89;97.78;96462.31;4987581;28;20062;-55
2021/09/20 07:48:04;;;;;;;15.30;12.52;;;;;;;17.60;100.00;96457.88;4987796;28;20378;-54
2021/09/20 07:50:32;;;;;;;15.13;12.40;;;;;;;17.51;100.00;96465.97;4987202;28;20108;-54
2021/09/20 07:53:00;;;;;;;14.20;11.93;;;;;;;18.78;90.12;96461.84;4985396;28;20426;-55
2021/09/20 07:55:35;;;;;;;17.40;12.15;;;;;;;18.04;99.00;96465.75;4984635;28;20074;-53
2021/09/20 07:58:04;;;;;;;18.33;12.25;;;;;;;18.13;96.82;96472.59;4985346;28;20082;-54
2021/09/20 08:00:34;;;;;;;17.92;12.25;;;;;;;18.76;92.92;96463.91;4985828;28;20066;-57
2021/09/20 08:03:06;;;;;;;;;;;;;;;18.83;89.02;96470.91;4987718;28;20069;-55
2021/09/20 08:05:35;;;;;;;17.08;12.60;;;;;;;18.85;83.75;96471.53;4984418;28;20636;-57
2021/09/20 08:08:03;;;;;;;17.35;12.88;;;;;;;18.84;83.62;96474.41;4981950;28;20070;-58
2021/09/20 08:10:34;;;;;;;16.95;12.43;;;;;;;19.56;75.62;96473.13;4983994;28;20081;-58
2021/09/20 08:13:09;;;;;;;19.50;12.48;;;;;;;19.83;70.10;96479.41;4978002;28;20081;-57
2021/09/20 08:15:40;;;;;;;20.20;13.18;;;;;;;20.32;68.00;96481.75;4988207;28;20078;-54
2021/09/20 08:18:08;;;;;;;16.33;12.90;;;;;;;20.24;66.72;96481.94;4981218;28;20101;-53
2021/09/20 08:20:37;;;;;;;15.32;12.00;;;;;;;20.23;67.25;96490.16;4986072;28;20082;-55
2021/09/20 08:23:05;;;;;;;18.65;12.75;;;;;;;19.90;69.69;96488.28;4983773;28;20070;-56
2021/09/20 08:25:34;;;;;;;17.02;12.25;;;;;;;20.44;67.64;96491.81;4980744;28;20079;-54
2021/09/20 08:28:03;;;;;;;15.43;12.15;;;;;;;20.61;65.38;96491.25;4987615;28;20090;-56
2021/09/20 08:30:31;;;;;;;17.23;12.98;;;;;;;20.50;64.82;96493.69;4988796;28;20069;-57
2021/09/20 08:33:01;;;;;;;17.05;12.23;;;;;;;20.47;66.36;96502.13;4985407;28;20058;-54
2021/09/20 08:35:30;;;;;;;16.52;12.60;;;;;;;20.77;62.96;96494.53;4986269;28;20050;-56
2021/09/20 08:37:58;;;;;;;16.27;12.57;;;;;;;20.74;63.28;96497.63;4986068;28;20081;-57
2021/09/20 08:40:28;;;;;;;17.25;12.98;;;;;;;20.71;61.64;96498.84;4979592;28;20035;-58
2021/09/20 08:42:57;;;;;;;15.90;12.80;;;;;;;21.11;61.69;96496.13;4983494;28;20062;-55
2021/09/20 08:45:27;;;;;;;16.00;12.83;;;;;;;19.15;74.92;96509.53;4983211;28;20058;-56
2021/09/20 08:47:57;;;;;;;16.17;12.33;;;;;;;19.78;70.40;96505.94;4984007;28;20585;-58
2021/09/20 08:50:29;;;;;;;15.23;12.18;;;;;;;21.23;60.45;96507.03;4984117;28;20077;-58
2021/09/20 08:52:58;;;;;;;15.65;12.55;;;;;;;21.42;60.18;96508.03;4983827;28;21954;-55
2021/09/20 08:55:27;;;;;;;14.77;12.05;;;;;;;20.90;61.41;96512.47;4984442;28;20127;-58
2021/09/20 08:57:55;;;;;;;16.02;12.35;;;;;;;21.17;60.40;96506.03;4986996;28;20316;-54
2021/09/20 09:00:24;;;;;;;16.60;12.77;;;;;;;20.94;61.12;96511.00;4983839;28;20088;-54
2021/09/20 09:02:53;;;;;;;16.13;12.82;;;;;;;20.81;64.56;96514.53;4985514;28;20066;-54
2021/09/20 09:05:25;;;;;;;16.23;12.43;;;;;;;21.51;60.34;96507.59;4983028;28;20076;-58
2021/09/20 09:07:56;;;;;;;15.32;12.02;;;;;;;21.67;59.41;96517.00;4987527;28;20057;-58
2021/09/20 09:10:28;;;;;;;16.00;12.30;;;;;;;20.89;61.64;96510.81;4987208;28;20081;-58
2021/09/20 09:12:58;;;;;;;15.05;11.57;;;;;;;21.06;62.42;96520.09;4979951;28;20488;-55
2021/09/20 09:15:27;;;;;;;15.68;11.60;;;;;;;21.20;58.61;96516.34;4986043;28;20077;-56
2021/09/20 09:17:57;;;;;;;13.48;10.15;;;;;;;19.95;65.38;96520.59;4982416;28;20085;-55
2021/09/20 09:20:28;;;;;;;16.77;10.05;;;;;;;20.12;63.99;96519.19;4984475;28;20062;-54
2021/09/20 09:23:00;;;;;;;13.68;10.05;;;;;;;19.58;66.89;96514.72;4977729;28;20493;-57
2021/09/20 09:25:35;;;;;;;12.63;9.23;;;;;;;18.72;72.35;96525.72;4980650;28;20089;-59
2021/09/20 09:28:15;;;;;;;12.48;9.93;;;;;;;19.58;66.78;96522.72;4988354;28;20495;-56
2021/09/20 09:30:50;;;;;;;13.07;9.80;;;;;;;19.82;63.43;96523.22;4984779;28;20066;-57
2021/09/20 09:33:21;;;;;;;11.85;8.57;;;;;;;20.83;57.54;96520.50;4983743;28;20062;-55
2021/09/20 09:35:50;;;;;;;;;;;;;;;20.86;56.91;96522.78;4984803;28;20081;-58
2021/09/20 09:38:20;;;;;;;10.93;8.80;;;;;;;20.00;61.77;96522.69;4985506;28;19957;-56
2021/09/20 09:40:52;;;;;;;12.20;8.57;;;;;;;21.13;56.72;96520.03;4983680;28;20086;-57
2021/09/20 09:43:28;;;;;;;12.88;8.13;;;;;;;21.75;58.69;96513.28;4986105;28;20104;-54
2021/09/20 09:45:57;;;;;;;13.07;7.50;;;;;;;21.60;54.27;96510.84;4982523;28;21365;-57
2021/09/20 09:48:27;;;;;;;10.52;7.85;;;;;;;22.74;50.84;96501.06;4985329;28;20074;-57
2021/09/20 09:50:57;;;;;;;10.60;7.80;;;;;;;22.27;50.89;96509.50;4985703;28;20078;-57
2021/09/20 09:53:30;;;;;;;9.48;7.90;;;;;;;21.56;53.64;96498.91;4973810;28;20555;-57
2021/09/20 09:56:00;;;;;;;10.55;7.65;;;;;;;19.63;60.46;96509.59;4985997;28;22591;-59
2021/09/20 09:58:29;;;;;;;;;;;;;;;21.77;54.21;96511.19;4985398;28;20742;-56
2021/09/20 10:01:14;;;;;;;8.88;7.28;;;;;;;21.68;53.42;96507.94;4984621;28;20270;-54
2021/09/20 10:04:05;;;;;;;8.95;7.18;;;;;;;20.48;58.46;96506.50;4976034;28;20081;-57
2021/09/20 10:06:49;;;;;;;;;;;;;;;20.80;61.38;96516.38;4985657;28;20070;-57
2021/09/20 10:09:21;;;;;;;10.23;7.40;;;;;;;21.02;57.29;96516.97;4983602;28;19976;-57
2021/09/20 10:11:52;;;;;;;9.93;7.47;;;;;;;20.80;59.80;96519.06;4984474;28;20058;-58
2021/09/20 10:14:21;;;;;;;12.70;8.50;;;;;;;20.96;57.25;96523.19;4982696;28;20069;-55
2021/09/20 10:16:55;;;;;;;9.88;8.18;;;;;;;21.18;59.17;96514.88;4980261;28;20069;-57
2021/09/20 10:19:24;;;;;;;11.38;7.95;;;;;;;21.04;59.60;96511.41;4988643;28;20074;-56
2021/09/20 10:21:53;;;;;;;10.27;7.85;;;;;;;21.56;58.93;96504.28;4984124;28;20085;-56
2021/09/20 10:24:23;;;;;;;9.57;8.10;;;;;;;20.62;60.98;96510.84;4981056;28;20066;-58
2021/09/20 10:26:53;;;;;;;11.98;8.50;;;;;;;20.98;62.53;96509.56;4987306;28;20429;-56
2021/09/20 10:29:22;;;;;;;10.48;8.57;;;;;;;21.99;53.86;96501.78;4979778;28;20066;-57
2021/09/20 10:31:51;;;;;;;11.93;8.20;;;;;;;21.25;57.83;96507.66;4980413;28;20077;-56
2021/09/20 10:34:31;;;;;;;8.95;7.30;;;;;;;21.48;55.35;96507.19;4981797;28;20081;-54
2021/09/20 10:37:08;;;;;;;7.97;6.75;;;;;;;21.41;56.43;96514.47;4982608;28;20449;-57
2021/09/20 10:40:04;;;;;;;9.23;7.45;;;;;;;22.15;54.24;96499.66;4979379;28;20070;-57
2021/09/20 10:42:56;;;;;;;7.78;5.93;;;;;;;22.44;50.65;96495.53;4981292;28;20536;-60
2021/09/20 10:45:51;;;;;;;8.25;7.07;;;;;;;23.39;47.48;96497.97;4979632;28;20068;-58
2021/09/20 10:48:32;;;;;;;8.90;7.43;;;;;;;23.02;48.85;96507.88;4985972;28;20065;-57
2021/09/20 10:51:04;;;;;;;8.10;6.65;;;;;;;22.36;49.43;96512.72;4989496;28;20062;-57
2021/09/20 10:53:34;;;;;;;8.65;6.75;;;;;;;21.80;52.11;96516.13;4987164;28;20072;-59
2021/09/20 10:56:13;;;;;;;7.40;6.53;;;;;;;22.85;47.92;96508.44;4988113;28;20070;-58
2021/09/20 10:58:43;;;;;;;8.10;6.93;;;;;;;21.37;51.47;96516.75;4988125;28;20078;-57
2021/09/20 11:01:27;;;;;;;8.38;7.10;;;;;;;22.14;50.18;96512.25;4986755;28;20089;-58
2021/09/20 11:03:59;;;;;;;8.75;6.45;;;;;;;22.13;50.93;96517.84;4985100;28;20403;-56
2021/09/20 11:06:29;;;;;;;8.73;7.55;;;;;;;22.56;50.18;96503.72;4989464;28;20535;-59
2021/09/20 11:09:39;;;;;;;10.13;7.38;;;;;;;21.71;51.81;96512.91;4987862;28;20058;-56
2021/09/20 11:12:14;;;;;;;10.63;7.30;;;;;;;22.45;50.96;96516.81;4988794;28;20446;-57
2021/09/20 11:15:05;;;;;;;8.52;7.35;;;;;;;22.01;51.35;96517.69;4985362;28;20074;-58
2021/09/20 11:17:45;;;;;;;9.57;7.93;;;;;;;22.31;50.32;96514.44;4983538;28;20069;-58
2021/09/20 11:20:38;;;;;;;8.88;7.25;;;;;;;21.41;54.38;96517.97;4983671;28;20068;-57
2021/09/20 11:23:22;;;;;;;11.05;8.60;;;;;;;20.79;57.86;96524.66;4986299;28;20069;-55
2021/09/20 11:26:12;;;;;;;9.75;7.88;;;;;;;21.30;54.97;96521.25;4986319;28;20066;-57
2021/09/20 11:28:44;;;;;;;8.45;7.28;;;;;;;22.05;54.08;96521.59;4985810;28;20078;-56
2021/09/20 11:31:13;;;;;;;8.60;7.50;;;;;;;21.43;53.18;96523.91;4986120;28;20090;-57